Time;durP1;ratioP1;P1;durP2;ratioP2;P2;SDS_P1;SDS_P2;PMS_P1;PMS_P2;Temp;Humidity;BMP_temperature;BMP_pressure;BME280_temperature;BME280_humidity;BME280_pressure;Samples;Min_cycle;Max_cycle;Signal;HPM_P1;HPM_P2
2024/01/08 00:00:03;;;;;;;20.70;11.20;;;;;;;-9.80;57.53;99605.31;107490;1254;73821;-39
2024/01/08 00:02:30;;;;;;;;;;;;;;;-9.88;57.77;99611.79;107390;1254;66740;-40
2024/01/08 00:04:58;;;;;;;22.00;11.10;;;;;;;-9.94;58.01;99611.95;107370;1254;72999;-39
2024/01/08 00:07:26;;;;;;;21.70;11.00;;;;;;;-9.98;58.53;99616.39;107338;1254;60203;-39
2024/01/08 00:09:53;;;;;;;22.40;10.80;;;;;;;-9.99;57.73;99610.95;107435;1254;60447;-39
2024/01/08 00:12:21;;;;;;;17.50;9.50;;;;;;;-9.93;58.05;99612.09;107483;1254;73764;-39
2024/01/08 00:14:49;;;;;;;19.10;9.90;;;;;;;-9.86;57.90;99609.82;107374;1254;66610;-39
2024/01/08 00:17:16;;;;;;;21.80;11.20;;;;;;;-9.81;57.62;99610.73;107384;1253;72789;-38
2024/01/08 00:19:44;;;;;;;20.70;10.60;;;;;;;-9.76;57.64;99611.02;107493;1254;60437;-39
2024/01/08 00:22:13;;;;;;;;;;;;;;;-9.80;57.17;99614.59;107540;1254;60414;-39
2024/01/08 00:24:41;;;;;;;23.30;11.40;;;;;;;-9.94;56.93;99620.25;107536;1254;71558;-39
2024/01/08 00:27:08;;;;;;;23.40;10.60;;;;;;;-10.05;57.62;99625.86;107502;1254;65989;-38
2024/01/08 00:29:36;;;;;;;22.40;10.50;;;;;;;-10.15;57.59;99625.39;106864;1254;1003200;-39
2024/01/08 00:32:05;;;;;;;22.60;11.00;;;;;;;-10.20;57.62;99626.66;106845;1254;1003562;-38
2024/01/08 00:34:33;;;;;;;18.00;9.50;;;;;;;-10.12;58.32;99624.92;107556;1254;59758;-39
2024/01/08 00:37:00;;;;;;;22.40;11.10;;;;;;;-10.02;57.66;99623.42;107489;1253;72655;-39
2024/01/08 00:39:28;;;;;;;20.20;10.20;;;;;;;-9.96;57.78;99622.45;107502;1253;66307;-39
2024/01/08 00:41:55;;;;;;;22.20;11.60;;;;;;;-9.94;57.43;99626.48;107520;1253;74492;-39
2024/01/08 00:44:23;;;;;;;20.30;11.10;;;;;;;-9.98;57.35;99628.94;107538;1254;60408;-39
2024/01/08 00:46:50;;;;;;;22.50;10.50;;;;;;;-10.06;57.57;99627.77;106756;1254;1003753;-39
2024/01/08 00:49:18;;;;;;;22.30;11.80;;;;;;;-10.16;57.33;99627.81;106749;1254;1002870;-39
2024/01/08 00:51:46;;;;;;;20.60;10.90;;;;;;;-10.20;57.51;99636.22;106780;1253;1003807;-39
2024/01/08 00:54:13;;;;;;;23.80;10.70;;;;;;;-10.13;57.90;99636.89;106721;1254;1003053;-38
2024/01/08 00:56:41;;;;;;;20.90;10.40;;;;;;;-10.06;57.63;99635.80;107485;1254;60522;-38
2024/01/08 00:59:08;;;;;;;20.20;10.50;;;;;;;-10.01;57.19;99634.89;107500;1254;60284;-39
2024/01/08 01:01:36;;;;;;;22.30;10.90;;;;;;;-9.99;57.44;99632.83;107503;1254;72532;-39
2024/01/08 01:04:03;;;;;;;23.20;11.60;;;;;;;-10.12;57.56;99623.93;107494;1254;67555;-39
2024/01/08 01:06:31;;;;;;;21.60;12.00;;;;;;;-10.10;57.37;99632.25;106726;1254;1003797;-39
2024/01/08 01:08:59;;;;;;;23.30;11.20;;;;;;;-10.14;57.61;99638.71;106813;1253;1002898;-39
2024/01/08 01:11:27;;;;;;;22.90;11.30;;;;;;;-10.15;57.61;99638.64;106741;1253;1016037;-40
2024/01/08 01:13:54;;;;;;;24.90;11.20;;;;;;;-10.10;57.09;99636.73;107493;1254;73828;-39
2024/01/08 01:16:26;;;;;;;22.00;11.30;;;;;;;-10.07;57.27;99639.48;106726;1258;1003438;-39
2024/01/08 01:18:54;;;;;;;21.60;12.10;;;;;;;-10.06;56.95;99640.05;107551;1254;71999;-39
2024/01/08 01:21:22;;;;;;;26.10;12.10;;;;;;;-10.08;56.63;99640.55;107453;1259;60543;-39
2024/01/08 01:23:50;;;;;;;24.80;12.30;;;;;;;-10.20;56.12;99636.30;107505;1254;60447;-38
2024/01/08 01:26:18;;;;;;;23.20;12.10;;;;;;;-10.28;56.68;99640.30;107618;1254;73978;-39
2024/01/08 01:28:45;;;;;;;26.00;12.30;;;;;;;-10.39;56.84;99637.33;107488;1254;66286;-39
2024/01/08 01:31:13;;;;;;;22.70;11.60;;;;;;;-10.46;57.01;99640.16;106759;1254;1002813;-39
2024/01/08 01:33:40;;;;;;;25.90;12.60;;;;;;;-10.38;57.37;99642.79;107496;1254;60374;-38
2024/01/08 01:36:08;;;;;;;22.20;11.70;;;;;;;-10.31;57.17;99640.17;107515;1254;60375;-39
2024/01/08 01:38:36;;;;;;;25.40;11.80;;;;;;;-10.32;56.84;99640.36;107498;1254;73831;-39
2024/01/08 01:41:04;;;;;;;26.00;12.10;;;;;;;-10.30;56.87;99644.87;107439;1254;67424;-39
2024/01/08 01:43:32;;;;;;;26.40;13.40;;;;;;;-10.26;56.92;99641.95;107449;1258;71601;-39
2024/01/08 01:46:17;;;;;;;21.40;12.60;;;;;;;-10.28;56.63;99641.15;107483;1253;60498;-39
2024/01/08 01:48:44;;;;;;;27.50;13.90;;;;;;;-10.40;56.29;99635.34;107345;1254;60687;-39
2024/01/08 01:51:12;;;;;;;27.60;13.40;;;;;;;-10.58;56.72;99628.83;107327;1254;73914;-39
2024/01/08 01:53:40;;;;;;;28.30;12.70;;;;;;;-10.57;57.21;99639.30;107285;1259;67584;-39
2024/01/08 01:56:08;;;;;;;24.30;12.80;;;;;;;-10.54;56.99;99643.63;107312;1254;71401;-39
2024/01/08 01:58:36;;;;;;;23.80;12.70;;;;;;;-10.49;57.18;99647.52;107407;1253;60311;-38
2024/01/08 02:01:03;;;;;;;27.40;12.00;;;;;;;-10.41;57.43;99650.39;107345;1254;60300;-38
2024/01/08 02:03:31;;;;;;;26.40;12.30;;;;;;;-10.32;57.24;99650.90;107458;1257;72914;-39
2024/01/08 02:05:59;;;;;;;24.10;12.30;;;;;;;-10.25;56.30;99657.57;107462;1253;67898;-38
2024/01/08 02:08:26;;;;;;;23.30;12.00;;;;;;;-10.17;56.65;99655.17;107488;1253;72727;-38
2024/01/08 02:10:56;;;;;;;26.00;12.50;;;;;;;-10.15;55.38;99658.46;107451;1256;60444;-39
2024/01/08 02:13:24;;;;;;;24.60;12.60;;;;;;;-10.25;55.51;99660.55;107480;1254;61037;-39
2024/01/08 02:15:52;;;;;;;25.10;13.30;;;;;;;-10.38;55.70;99654.27;106656;1254;1003414;-39
2024/01/08 02:18:19;;;;;;;26.40;12.30;;;;;;;-10.49;55.91;99654.10;107371;1253;67525;-38
2024/01/08 02:20:47;;;;;;;26.50;12.50;;;;;;;-10.61;56.19;99656.75;107427;1256;70425;-39
2024/01/08 02:23:14;;;;;;;23.30;12.00;;;;;;;-10.61;56.13;99657.39;107434;1253;60396;-39
2024/01/08 02:25:42;;;;;;;23.60;12.50;;;;;;;-10.57;55.98;99660.86;107407;1254;60335;-39
2024/01/08 02:28:09;;;;;;;26.90;12.60;;;;;;;-10.61;55.78;99657.47;107255;1254;73813;-39
2024/01/08 02:30:37;;;;;;;23.60;13.00;;;;;;;-10.62;55.77;99658.23;107453;1256;68227;-38
2024/01/08 02:33:05;;;;;;;23.60;12.30;;;;;;;-10.71;55.67;99658.93;107464;1254;72687;-38
2024/01/08 02:35:33;;;;;;;25.80;12.60;;;;;;;-10.68;56.10;99656.27;107460;1257;60414;-38
2024/01/08 02:38:01;;;;;;;26.80;12.40;;;;;;;-10.61;55.96;99655.45;107522;1253;60501;-39
2024/01/08 02:40:28;;;;;;;24.20;12.10;;;;;;;-10.53;55.48;99652.40;107421;1253;73857;-39
2024/01/08 02:42:56;;;;;;;24.20;13.50;;;;;;;-10.53;55.40;99656.39;107477;1259;66553;-39
2024/01/08 02:45:23;;;;;;;27.90;13.10;;;;;;;-10.62;55.78;99661.50;107466;1257;71438;-39
2024/01/08 02:47:51;;;;;;;24.20;12.80;;;;;;;-10.72;55.66;99662.96;107516;1253;60515;-39
2024/01/08 02:50:19;;;;;;;25.70;12.50;;;;;;;-10.82;55.90;99664.55;107451;1253;60533;-38
2024/01/08 02:52:46;;;;;;;24.80;12.30;;;;;;;-10.85;55.92;99668.95;106663;1254;1003276;-38
2024/01/08 02:55:14;;;;;;;24.30;11.40;;;;;;;-10.80;55.92;99668.32;107489;1253;66330;-38
2024/01/08 02:57:41;;;;;;;23.60;11.60;;;;;;;-10.77;56.30;99673.20;107384;1253;72657;-39
2024/01/08 03:00:09;;;;;;;22.60;11.50;;;;;;;-10.74;56.17;99668.10;107294;1254;59596;-38
2024/01/08 03:02:38;;;;;;;25.20;11.70;;;;;;;-10.75;56.07;99672.87;107388;1254;60528;-39
2024/01/08 03:05:06;;;;;;;24.50;11.40;;;;;;;-10.71;55.83;99666.41;107370;1254;72533;-39
2024/01/08 03:07:33;;;;;;;22.80;11.70;;;;;;;-10.62;56.21;99666.43;107389;1253;66296;-38
2024/01/08 03:10:01;;;;;;;24.80;11.40;;;;;;;-10.57;54.84;99664.92;107353;1253;71402;-39
2024/01/08 03:12:28;;;;;;;24.90;12.10;;;;;;;-10.54;55.47;99667.15;107371;1254;60892;-38
2024/01/08 03:14:56;;;;;;;21.20;11.40;;;;;;;-10.58;55.34;99663.32;107467;1254;60103;-39
2024/01/08 03:17:23;;;;;;;22.20;11.60;;;;;;;-10.59;54.98;99667.04;107478;1256;73803;-39
2024/01/08 03:19:51;;;;;;;22.20;11.10;;;;;;;-10.62;55.22;99667.68;107451;1254;67903;-38
2024/01/08 03:22:18;;;;;;;23.60;12.00;;;;;;;-10.63;55.06;99664.77;107451;1254;71659;-38
2024/01/08 03:24:46;;;;;;;23.10;11.50;;;;;;;-10.59;55.38;99666.48;107478;1254;60966;-38
2024/01/08 03:27:13;;;;;;;22.10;11.30;;;;;;;-10.58;54.85;99666.35;107459;1253;60322;-39
2024/01/08 03:29:41;;;;;;;25.00;11.70;;;;;;;-10.58;54.76;99664.77;107458;1253;73853;-38
2024/01/08 03:32:09;;;;;;;24.00;12.00;;;;;;;-10.60;54.96;99669.80;107448;1253;66815;-39
2024/01/08 03:34:37;;;;;;;22.90;11.90;;;;;;;-10.66;55.03;99671.38;107449;1253;72834;-38
2024/01/08 03:37:04;;;;;;;25.40;11.70;;;;;;;-10.64;55.51;99673.30;107474;1253;60427;-39
2024/01/08 03:39:32;;;;;;;24.40;11.60;;;;;;;-10.56;55.59;99672.05;107444;1253;60428;-38
2024/01/08 03:41:59;;;;;;;18.90;10.20;;;;;;;-10.48;54.72;99675.61;107517;1254;72873;-39
2024/01/08 03:44:27;;;;;;;21.60;11.20;;;;;;;-10.44;54.28;99680.65;107521;1254;67560;-38
2024/01/08 03:46:55;;;;;;;23.80;10.90;;;;;;;-10.45;54.44;99685.94;107513;1254;72526;-39
2024/01/08 03:49:22;;;;;;;22.50;11.30;;;;;;;-10.47;54.33;99682.86;107527;1254;60527;-39
2024/01/08 03:51:50;;;;;;;21.80;11.20;;;;;;;-10.50;54.63;99682.57;107498;1252;60194;-38
2024/01/08 03:54:17;;;;;;;22.40;10.80;;;;;;;-10.56;54.33;99683.86;107500;1258;73806;-39
2024/01/08 03:56:45;;;;;;;21.60;11.10;;;;;;;-10.58;54.44;99683.64;107451;1254;66615;-38
2024/01/08 03:59:13;;;;;;;18.70;10.10;;;;;;;-10.57;54.48;99689.67;107376;1254;72752;-39
2024/01/08 04:01:43;;;;;;;20.50;10.20;;;;;;;-10.61;54.06;99692.41;107451;1253;60430;-39
2024/01/08 04:04:11;;;;;;;20.60;10.90;;;;;;;-10.63;54.10;99692.14;107500;1254;60394;-39
2024/01/08 04:06:39;;;;;;;21.90;11.10;;;;;;;-10.65;54.74;99694.70;107402;1252;73856;-38
2024/01/08 04:09:07;;;;;;;19.90;10.50;;;;;;;-10.61;54.89;99692.73;107403;1253;66636;-39
2024/01/08 04:11:34;;;;;;;22.90;11.00;;;;;;;-10.64;54.16;99688.37;106715;1254;1003029;-39
2024/01/08 04:14:02;;;;;;;20.20;11.40;;;;;;;-10.75;54.38;99690.06;107591;1253;60378;-39
2024/01/08 04:16:30;;;;;;;26.20;11.60;;;;;;;-10.97;54.34;99682.30;107510;1254;60426;-39
2024/01/08 04:18:57;;;;;;;22.70;10.60;;;;;;;-11.09;54.59;99696.66;106832;1254;1003544;-39
2024/01/08 04:21:25;;;;;;;21.40;10.70;;;;;;;-11.16;54.94;99695.66;107465;1254;66642;-39
2024/01/08 04:23:53;;;;;;;19.60;10.40;;;;;;;-11.16;54.94;99695.09;106732;1253;1002986;-39
2024/01/08 04:26:20;;;;;;;23.60;10.30;;;;;;;-11.12;55.43;99699.71;107515;1254;60977;-39
2024/01/08 04:28:48;;;;;;;18.90;10.20;;;;;;;-11.07;55.23;99699.34;107493;1257;59227;-39
2024/01/08 04:31:19;;;;;;;19.60;9.80;;;;;;;-11.01;54.75;99706.65;107464;1254;73842;-39
2024/01/08 04:33:47;;;;;;;19.40;10.00;;;;;;;-10.94;55.09;99707.58;107510;1253;67683;-39
2024/01/08 04:36:15;;;;;;;21.70;9.40;;;;;;;-10.89;55.24;99708.06;107397;1253;72438;-38
2024/01/08 04:38:45;;;;;;;18.50;9.90;;;;;;;-10.85;54.95;99709.02;107524;1254;60941;-38
2024/01/08 04:41:21;;;;;;;19.90;9.80;;;;;;;-10.78;55.31;99716.11;107481;1253;59582;-39
2024/01/08 04:43:49;;;;;;;19.90;9.70;;;;;;;-10.68;55.04;99720.33;107512;1253;73805;-38
2024/01/08 04:46:17;;;;;;;20.90;9.90;;;;;;;-10.66;54.83;99719.01;107521;1253;67674;-38
2024/01/08 04:48:46;;;;;;;23.10;11.10;;;;;;;-10.73;54.57;99724.58;107555;1252;72771;-38
2024/01/08 04:51:21;;;;;;;20.40;10.20;;;;;;;-10.84;54.24;99729.52;107511;1254;60265;-38
2024/01/08 04:53:49;;;;;;;17.60;9.90;;;;;;;-10.93;54.94;99732.30;107511;1254;60463;-38
2024/01/08 04:56:23;;;;;;;20.70;10.50;;;;;;;-10.93;55.69;99733.46;107479;1254;73861;-38
2024/01/08 04:58:52;;;;;;;18.30;9.40;;;;;;;-10.86;55.66;99739.19;107532;1254;66299;-39
2024/01/08 05:01:20;;;;;;;17.60;9.80;;;;;;;-10.83;55.25;99742.73;107556;1254;72708;-37
2024/01/08 05:03:47;;;;;;;19.30;9.50;;;;;;;-10.84;54.92;99744.35;107476;1254;60858;-39
2024/01/08 05:06:16;;;;;;;15.40;8.80;;;;;;;-10.81;54.56;99743.53;107523;1254;60428;-38
2024/01/08 05:08:44;;;;;;;16.70;8.90;;;;;;;-10.81;54.42;99745.54;107383;1254;73869;-38
2024/01/08 05:11:11;;;;;;;21.10;9.40;;;;;;;-10.80;54.38;99749.73;107380;1254;67937;-38
2024/01/08 05:13:40;;;;;;;17.50;9.30;;;;;;;-10.74;55.04;99752.77;107425;1254;72658;-38
2024/01/08 05:16:08;;;;;;;12.70;7.30;;;;;;;-10.67;54.72;99753.55;107435;1254;60881;-38
2024/01/08 05:18:36;;;;;;;16.20;9.20;;;;;;;-10.67;54.66;99755.27;107548;1254;60521;-38
2024/01/08 05:21:04;;;;;;;19.90;9.80;;;;;;;-10.70;55.11;99761.67;107439;1253;73894;-38
2024/01/08 05:23:33;;;;;;;21.70;10.60;;;;;;;-10.76;55.28;99763.84;106830;1254;1003813;-38
2024/01/08 05:26:01;;;;;;;21.00;10.20;;;;;;;-10.85;54.98;99772.67;106712;1254;1003458;-38
2024/01/08 05:28:29;;;;;;;18.90;9.90;;;;;;;-10.98;55.39;99772.83;107395;1254;61668;-39
2024/01/08 05:30:56;;;;;;;18.30;9.00;;;;;;;-10.96;55.40;99782.94;107424;1254;60312;-38
2024/01/08 05:33:25;;;;;;;21.10;10.20;;;;;;;-10.93;55.72;99784.14;107497;1254;73775;-38
2024/01/08 05:35:53;;;;;;;18.80;9.00;;;;;;;-10.90;55.78;99789.75;107498;1254;68324;-38
2024/01/08 05:38:21;;;;;;;22.00;9.80;;;;;;;-10.85;55.80;99796.66;107520;1254;72492;-38
2024/01/08 05:40:49;;;;;;;17.80;8.70;;;;;;;-10.79;55.40;99791.66;107521;1253;60190;-38
2024/01/08 05:43:17;;;;;;;20.20;9.00;;;;;;;-10.76;55.28;99789.39;107498;1252;59256;-38
2024/01/08 05:45:45;;;;;;;17.60;9.40;;;;;;;-10.74;54.90;99800.56;107525;1252;73075;-38
2024/01/08 05:48:13;;;;;;;16.90;9.00;;;;;;;-10.93;54.78;99778.77;107486;1253;66401;-38
2024/01/08 05:50:41;;;;;;;17.70;9.40;;;;;;;-10.91;54.76;99804.27;107504;1254;72396;-38
2024/01/08 05:53:08;;;;;;;19.60;9.50;;;;;;;-10.98;55.37;99806.05;107357;1254;60469;-38
2024/01/08 05:55:36;;;;;;;16.50;9.40;;;;;;;-11.03;55.61;99808.27;107287;1253;160997;-38
2024/01/08 06:00:27;;;;;;;21.60;9.80;;;;;;;-11.03;55.46;99810.68;104097;1291;600640;-38
2024/01/08 06:02:54;;;;;;;18.60;9.80;;;;;;;-11.12;55.48;99814.95;106591;1268;59222;-38
2024/01/08 06:05:22;;;;;;;16.20;8.90;;;;;;;-11.21;55.74;99817.04;106540;1266;59341;-38
2024/01/08 06:07:50;;;;;;;19.70;9.20;;;;;;;-11.28;56.06;99818.15;106528;1267;70817;-38
2024/01/08 06:10:18;;;;;;;15.60;9.10;;;;;;;-11.30;55.86;99823.67;106672;1266;66557;-38
2024/01/08 06:12:45;;;;;;;17.00;8.50;;;;;;;-11.27;55.64;99825.36;106656;1266;72795;-38
2024/01/08 06:15:13;;;;;;;18.10;9.40;;;;;;;-11.20;56.12;99825.08;106668;1263;125434;-38
2024/01/08 06:17:40;;;;;;;19.50;9.00;;;;;;;-11.12;56.03;99831.30;106727;1263;60117;-38
2024/01/08 06:20:13;;;;;;;14.40;7.70;;;;;;;-11.07;55.91;99831.36;106817;1263;72295;-38
2024/01/08 06:22:41;;;;;;;17.20;9.00;;;;;;;-11.02;55.72;99836.69;106812;1263;67579;-38
2024/01/08 06:25:08;;;;;;;16.30;9.10;;;;;;;-10.91;55.31;99836.77;105881;1263;1004211;-38
2024/01/08 06:27:36;;;;;;;16.50;8.40;;;;;;;-10.91;55.11;99838.83;106635;1263;59656;-38
2024/01/08 06:30:04;;;;;;;18.20;9.60;;;;;;;-10.97;55.79;99841.06;105899;1263;1003199;-38
2024/01/08 06:32:32;;;;;;;17.50;8.90;;;;;;;-11.07;55.42;99845.58;106728;1263;73163;-38
2024/01/08 06:35:00;;;;;;;20.10;8.70;;;;;;;-11.18;55.75;99851.02;106729;1263;67184;-38
2024/01/08 06:37:28;;;;;;;15.00;8.20;;;;;;;-11.23;55.47;99858.11;106729;1263;74832;-39
2024/01/08 06:39:56;;;;;;;17.00;8.30;;;;;;;-11.20;56.14;99858.18;106727;1266;60394;-39
2024/01/08 06:42:23;;;;;;;13.50;7.80;;;;;;;-11.15;56.17;99862.02;106766;1263;59487;-43
2024/01/08 06:44:51;;;;;;;16.50;8.20;;;;;;;-11.11;55.78;99856.30;106749;1263;75057;-37
2024/01/08 06:47:18;;;;;;;14.10;7.50;;;;;;;-11.08;55.33;99864.78;106835;1263;66546;-38
2024/01/08 06:49:46;;;;;;;14.00;8.10;;;;;;;-11.03;55.41;99867.19;106807;1263;71458;-38
2024/01/08 06:52:13;;;;;;;13.10;7.30;;;;;;;-10.97;55.23;99860.98;106712;1263;60899;-38
2024/01/08 06:54:41;;;;;;;16.50;8.40;;;;;;;-10.88;55.10;99862.98;106727;1264;60089;-37
2024/01/08 06:57:08;;;;;;;17.30;9.10;;;;;;;-10.88;55.16;99863.70;106640;1263;73197;-37
2024/01/08 06:59:36;;;;;;;18.30;8.40;;;;;;;-10.94;55.44;99866.95;106672;1263;66690;-38
2024/01/08 07:02:04;;;;;;;18.10;8.80;;;;;;;-10.98;55.29;99872.52;106677;1266;70405;-38
2024/01/08 07:04:31;;;;;;;14.90;8.30;;;;;;;-11.05;55.13;99873.61;106007;1269;1002676;-38
2024/01/08 07:06:59;;;;;;;17.20;8.20;;;;;;;-11.12;54.80;99872.81;106832;1263;59497;-40
2024/01/08 07:09:26;;;;;;;13.60;8.00;;;;;;;-11.12;55.28;99875.77;106737;1263;72960;-39
2024/01/08 07:11:54;;;;;;;14.50;8.00;;;;;;;-11.05;55.44;99881.70;106728;1263;66629;-39
2024/01/08 07:14:21;;;;;;;17.50;8.20;;;;;;;-10.99;54.93;99881.55;106745;1269;72045;-39
2024/01/08 07:16:49;;;;;;;16.50;9.00;;;;;;;-10.95;54.43;99882.35;106758;1263;59985;-39
2024/01/08 07:19:17;;;;;;;14.20;7.70;;;;;;;-10.92;54.36;99887.21;106740;1263;59622;-39
2024/01/08 07:21:44;;;;;;;19.50;8.00;;;;;;;-10.90;54.82;99874.75;106780;1263;73082;-39
2024/01/08 07:24:12;;;;;;;15.90;8.40;;;;;;;-10.69;54.69;99887.95;106766;1269;67951;-39
2024/01/08 07:26:39;;;;;;;15.30;8.10;;;;;;;-10.65;54.50;99889.63;106734;1263;72909;-39
2024/01/08 07:29:07;;;;;;;16.50;8.10;;;;;;;-10.71;54.03;99893.59;106755;1263;59528;-39
2024/01/08 07:31:35;;;;;;;16.40;9.10;;;;;;;-10.79;53.98;99892.83;105940;1263;1003728;-38
2024/01/08 07:34:02;;;;;;;14.30;8.00;;;;;;;-10.86;54.26;99898.02;106624;1263;73061;-38
2024/01/08 07:36:31;;;;;;;17.70;7.90;;;;;;;-10.92;54.49;99902.46;106639;1263;67543;-38
2024/01/08 07:38:58;;;;;;;14.30;7.40;;;;;;;-10.84;54.29;99905.87;106688;1266;72660;-38
2024/01/08 07:41:27;;;;;;;16.10;7.10;;;;;;;-10.81;54.38;99903.23;106759;1263;59615;-38
2024/01/08 07:43:55;;;;;;;15.40;7.10;;;;;;;-10.79;54.71;99910.11;106817;1263;59985;-38
2024/01/08 07:46:22;;;;;;;14.40;7.40;;;;;;;-10.74;54.34;99913.56;106684;1263;73120;-39
2024/01/08 07:48:50;;;;;;;17.60;7.50;;;;;;;-10.66;53.96;99908.81;106781;1264;67673;-38
2024/01/08 07:51:24;;;;;;;14.10;7.50;;;;;;;-10.63;53.28;99913.77;106731;1263;72477;-38
2024/01/08 07:53:52;;;;;;;16.20;7.80;;;;;;;-10.61;53.35;99915.33;106643;1265;59650;-38
2024/01/08 07:56:25;;;;;;;15.60;7.30;;;;;;;-10.59;53.49;99919.18;106751;1269;59625;-38
2024/01/08 07:58:55;;;;;;;15.00;8.00;;;;;;;-10.51;53.72;99920.02;106797;1269;73323;-38
2024/01/08 08:01:23;;;;;;;13.30;7.60;;;;;;;-10.42;53.34;99917.97;106749;1264;67584;-38
2024/01/08 08:03:51;;;;;;;16.80;8.50;;;;;;;-10.44;53.60;99916.92;106719;1266;72527;-38
2024/01/08 08:06:18;;;;;;;15.10;7.90;;;;;;;-10.48;53.58;99916.54;106762;1266;59753;-38
2024/01/08 08:08:46;;;;;;;18.80;9.20;;;;;;;-10.52;53.80;99915.11;105998;1263;1003368;-38
2024/01/08 08:11:13;;;;;;;16.30;8.30;;;;;;;-10.57;53.90;99921.19;106008;1263;1002863;-38
2024/01/08 08:13:41;;;;;;;15.40;7.90;;;;;;;-10.52;54.15;99923.50;106612;1263;66285;-38
2024/01/08 08:16:08;;;;;;;15.70;7.50;;;;;;;-10.43;53.42;99928.41;106701;1269;72688;-38
2024/01/08 08:18:36;;;;;;;14.00;7.30;;;;;;;-10.31;54.17;99932.79;106626;1266;60879;-38
2024/01/08 08:21:04;;;;;;;14.80;8.40;;;;;;;-10.16;53.81;99937.92;106624;1263;59525;-38
2024/01/08 08:23:33;;;;;;;15.70;8.10;;;;;;;-10.08;53.08;99940.70;106802;1264;73442;-39
2024/01/08 08:26:00;;;;;;;17.10;8.20;;;;;;;-10.16;53.48;99934.05;106651;1263;67578;-38
2024/01/08 08:28:29;;;;;;;17.70;8.20;;;;;;;-10.13;53.36;99945.59;106642;1263;71714;-39
2024/01/08 08:30:57;;;;;;;14.90;7.90;;;;;;;-10.23;52.76;99946.02;106734;1264;60140;-39
2024/01/08 08:33:24;;;;;;;16.70;7.90;;;;;;;-10.37;52.76;99947.09;106821;1263;60043;-39
2024/01/08 08:35:52;;;;;;;16.80;8.00;;;;;;;-10.38;53.44;99954.91;106734;1263;73325;-39
2024/01/08 08:38:20;;;;;;;15.60;8.00;;;;;;;-10.27;53.74;99959.35;106812;1264;67892;-39
2024/01/08 08:40:48;;;;;;;15.40;8.30;;;;;;;-10.18;53.82;99957.59;106798;1264;71546;-39
2024/01/08 08:43:16;;;;;;;16.30;8.00;;;;;;;-10.15;53.61;99955.48;106746;1266;59637;-39
2024/01/08 08:45:43;;;;;;;15.30;7.30;;;;;;;-10.13;53.47;99956.41;106727;1269;60109;-39
2024/01/08 08:48:11;;;;;;;18.90;7.70;;;;;;;-10.13;53.03;99954.92;106051;1263;1003645;-39
2024/01/08 08:50:39;;;;;;;14.50;7.80;;;;;;;-10.08;53.05;99952.38;106734;1269;68017;-39
2024/01/08 08:53:06;;;;;;;16.00;7.10;;;;;;;-10.02;52.79;99951.38;106730;1264;71704;-38
2024/01/08 08:55:34;;;;;;;12.70;6.90;;;;;;;-9.97;53.28;99951.55;106599;1269;60463;-39
2024/01/08 08:58:02;;;;;;;14.90;7.30;;;;;;;-9.94;52.89;99948.42;106652;1263;59717;-39
2024/01/08 09:00:30;;;;;;;14.20;7.60;;;;;;;-9.90;52.84;99947.95;106718;1269;71857;-39
2024/01/08 09:02:59;;;;;;;15.30;7.10;;;;;;;-9.84;52.63;99941.94;106765;1269;66793;-39
2024/01/08 09:05:26;;;;;;;16.40;8.50;;;;;;;-9.76;52.48;99946.64;106752;1264;72777;-38
2024/01/08 09:08:06;;;;;;;;;;;;;;;-9.69;52.38;99939.89;106753;1266;60911;-39
2024/01/08 09:10:34;;;;;;;14.30;7.40;;;;;;;-9.60;52.45;99946.23;106749;1263;59829;-38
2024/01/08 09:13:01;;;;;;;14.70;7.70;;;;;;;-9.50;52.02;99947.69;106773;1263;71444;-38
2024/01/08 09:15:29;;;;;;;13.60;7.40;;;;;;;-9.55;51.50;99948.55;106804;1269;67878;-37
2024/01/08 09:17:56;;;;;;;16.00;8.10;;;;;;;-9.64;51.27;99952.92;106749;1269;71683;-38
2024/01/08 09:20:24;;;;;;;14.00;7.30;;;;;;;-9.71;51.97;99957.83;106751;1264;59545;-37
2024/01/08 09:22:52;;;;;;;14.30;7.60;;;;;;;-9.79;51.86;99955.10;106734;1263;59755;-38
2024/01/08 09:25:20;;;;;;;18.60;8.60;;;;;;;-9.84;51.88;99953.52;106056;1263;1003551;-38
2024/01/08 09:27:48;;;;;;;16.50;7.50;;;;;;;-9.77;52.39;99951.17;105312;1264;1003368;-38
2024/01/08 09:30:15;;;;;;;17.20;7.60;;;;;;;-9.70;52.57;99954.02;106741;1264;72440;-37
2024/01/08 09:32:47;;;;;;;14.80;7.70;;;;;;;-9.62;53.12;99958.53;106759;1266;59695;-37
2024/01/08 09:35:15;;;;;;;13.50;7.50;;;;;;;-9.53;53.08;99954.05;106752;1263;60100;-38
2024/01/08 09:37:44;;;;;;;14.40;7.70;;;;;;;-9.49;52.30;99950.55;107021;1258;71764;-38
2024/01/08 09:40:11;;;;;;;16.70;8.60;;;;;;;-9.58;51.84;99952.04;107007;1257;67277;-38
2024/01/08 09:42:39;;;;;;;15.10;8.70;;;;;;;-9.72;52.11;99944.84;106985;1257;72678;-39
2024/01/08 09:45:10;;;;;;;13.40;7.40;;;;;;;-9.81;52.71;99938.98;106220;1260;1003872;-38
2024/01/08 09:47:41;;;;;;;14.90;7.50;;;;;;;-9.89;52.76;99937.33;106977;1257;59489;-38
2024/01/08 09:50:10;;;;;;;15.80;7.90;;;;;;;-9.88;52.95;99941.16;107043;1263;71844;-38
2024/01/08 09:52:39;;;;;;;15.50;7.90;;;;;;;-9.74;53.53;99940.70;107069;1259;67820;-38
2024/01/08 09:55:10;;;;;;;14.00;7.70;;;;;;;-9.59;53.50;99943.00;107087;1257;72810;-38
2024/01/08 09:57:37;;;;;;;14.50;7.80;;;;;;;-9.43;53.21;99946.22;107022;1262;59820;-38
2024/01/08 10:00:06;;;;;;;13.90;7.40;;;;;;;-9.33;53.39;99936.11;107070;1260;60074;-38
2024/01/08 10:02:40;;;;;;;15.50;7.70;;;;;;;-9.37;52.61;99939.02;107024;1260;72500;-38
2024/01/08 10:05:08;;;;;;;15.80;8.00;;;;;;;-9.44;52.88;99939.80;107158;1260;66496;-37
2024/01/08 10:07:36;;;;;;;14.00;7.80;;;;;;;-9.43;53.23;99934.02;107011;1263;72835;-37
2024/01/08 10:10:05;;;;;;;14.10;7.20;;;;;;;-9.39;53.36;99936.38;107026;1260;60428;-38
2024/01/08 10:12:35;;;;;;;13.60;7.50;;;;;;;-9.40;52.87;99931.33;107012;1260;60454;-39
2024/01/08 10:15:04;;;;;;;14.10;7.30;;;;;;;-9.35;52.48;99928.17;106207;1260;1003644;-38
2024/01/08 10:17:32;;;;;;;14.50;7.40;;;;;;;-9.26;52.65;99929.42;106973;1260;66581;-38
2024/01/08 10:20:09;;;;;;;13.50;7.30;;;;;;;-9.20;52.37;99925.93;106959;1261;72913;-38
2024/01/08 10:22:38;;;;;;;13.70;7.40;;;;;;;-9.09;52.52;99925.73;106935;1260;63052;-38
2024/01/08 10:25:06;;;;;;;12.10;8.00;;;;;;;-8.91;52.80;99924.78;106993;1260;60319;-38
2024/01/08 10:27:34;;;;;;;13.80;7.50;;;;;;;-8.67;52.56;99919.89;107049;1259;73961;-38
2024/01/08 10:30:03;;;;;;;13.30;7.20;;;;;;;-8.51;51.76;99923.88;107048;1261;66828;-38
2024/01/08 10:32:30;;;;;;;14.60;8.40;;;;;;;-8.43;51.50;99925.61;107109;1260;72317;-38
2024/01/08 10:34:59;;;;;;;16.20;7.70;;;;;;;-8.37;51.79;99926.15;107072;1260;60418;-38
2024/01/08 10:37:26;;;;;;;13.50;7.40;;;;;;;-8.31;52.03;99929.55;107065;1260;60588;-38
2024/01/08 10:39:54;;;;;;;15.00;8.40;;;;;;;-8.30;51.82;99928.89;106268;1265;1003099;-38
2024/01/08 10:42:23;;;;;;;15.10;7.30;;;;;;;-8.29;51.49;99934.48;106142;1260;1005049;-38
2024/01/08 10:44:50;;;;;;;13.90;7.30;;;;;;;-8.24;51.14;99932.18;106298;1263;1003680;-38
2024/01/08 10:47:25;;;;;;;15.60;7.80;;;;;;;-8.12;51.37;99929.61;107013;1263;60776;-38
2024/01/08 10:49:58;;;;;;;13.10;7.10;;;;;;;-7.98;50.99;99926.34;107046;1259;61060;-37
2024/01/08 10:52:32;;;;;;;13.50;7.50;;;;;;;-7.94;51.26;99929.19;107031;1260;74022;-37
2024/01/08 10:55:04;;;;;;;13.50;7.50;;;;;;;-7.92;51.31;99930.29;106983;1260;67901;-37
2024/01/08 10:57:57;;;;;;;18.40;8.50;;;;;;;-7.87;50.84;99935.66;106764;1264;72786;-38
2024/01/08 11:00:25;;;;;;;12.60;7.40;;;;;;;-7.88;50.24;99938.13;106975;1264;60433;-38
2024/01/08 11:02:52;;;;;;;14.40;8.10;;;;;;;-7.88;50.49;99939.30;106172;1258;1003741;-38
2024/01/08 11:05:21;;;;;;;14.80;7.20;;;;;;;-7.85;50.70;99940.77;106191;1263;1003152;-38
2024/01/08 11:07:50;;;;;;;13.10;7.40;;;;;;;-7.78;50.94;99941.22;106998;1263;67049;-39
2024/01/08 11:10:19;;;;;;;15.50;8.50;;;;;;;-7.59;50.50;99945.90;107030;1263;72795;-38
2024/01/08 11:12:57;;;;;;;13.50;7.40;;;;;;;-7.45;49.78;99938.11;107023;1260;60463;-38